sensor_id;sensor_type;location;lat;lon;timestamp;pressure;altitude;pressure_sealevel;temperature;humidity
13974;BME280;7060;43.770;4.008;2023-06-10T00:01:27;100603.66;;;19.91;81.23
13974;BME280;7060;43.770;4.008;2023-06-10T00:03:58;100644.97;;;20.19;81.31
13974;BME280;7060;43.770;4.008;2023-06-10T00:06:26;100644.97;;;20.19;81.00
13974;BME280;7060;43.770;4.008;2023-06-10T00:08:55;100601.56;;;19.93;80.91
13974;BME280;7060;43.770;4.008;2023-06-10T00:11:25;100562.78;;;19.73;81.04
13974;BME280;7060;43.770;4.008;2023-06-10T00:13:54;100635.56;;;20.15;81.34
13974;BME280;7060;43.770;4.008;2023-06-10T00:16:22;100645.59;;;20.15;81.67
13974;BME280;7060;43.770;4.008;2023-06-10T00:18:53;100639.13;;;20.16;81.78
13974;BME280;7060;43.770;4.008;2023-06-10T00:21:27;100639.97;;;20.16;81.59
13974;BME280;7060;43.770;4.008;2023-06-10T00:23:56;100641.22;;;20.14;81.96
13974;BME280;7060;43.770;4.008;2023-06-10T00:26:26;100643.72;;;20.15;82.04
13974;BME280;7060;43.770;4.008;2023-06-10T00:28:54;100641.63;;;20.17;82.27
13974;BME280;7060;43.770;4.008;2023-06-10T00:31:23;100644.97;;;20.19;82.56
13974;BME280;7060;43.770;4.008;2023-06-10T00:33:53;100637.47;;;20.21;83.13
13974;BME280;7060;43.770;4.008;2023-06-10T00:36:23;100628.69;;;20.13;83.93
13974;BME280;7060;43.770;4.008;2023-06-10T00:38:52;100637.06;;;20.24;83.80
13974;BME280;7060;43.770;4.008;2023-06-10T00:41:20;100636.22;;;20.31;83.88
13974;BME280;7060;43.770;4.008;2023-06-10T00:43:51;100638.50;;;20.34;83.75
13974;BME280;7060;43.770;4.008;2023-06-10T00:46:20;100638.06;;;20.37;83.58
13974;BME280;7060;43.770;4.008;2023-06-10T00:48:49;100640.56;;;20.38;83.65
13974;BME280;7060;43.770;4.008;2023-06-10T00:51:18;100637.66;;;20.40;83.28
13974;BME280;7060;43.770;4.008;2023-06-10T00:53:48;100635.56;;;20.42;83.43
13974;BME280;7060;43.770;4.008;2023-06-10T00:56:18;100628.88;;;20.44;83.59
13974;BME280;7060;43.770;4.008;2023-06-10T00:58:48;100637.84;;;20.45;83.97
13974;BME280;7060;43.770;4.008;2023-06-10T01:01:18;100626.78;;;20.46;84.06
13974;BME280;7060;43.770;4.008;2023-06-10T01:03:48;100632.22;;;20.46;83.98
13974;BME280;7060;43.770;4.008;2023-06-10T01:06:24;100637.44;;;20.48;83.87
13974;BME280;7060;43.770;4.008;2023-06-10T01:09:04;100629.06;;;20.49;84.13
13974;BME280;7060;43.770;4.008;2023-06-10T01:11:39;100635.13;;;20.51;83.88
13974;BME280;7060;43.770;4.008;2023-06-10T01:14:11;100635.34;;;20.50;83.97
13974;BME280;7060;43.770;4.008;2023-06-10T01:16:43;100634.50;;;20.56;83.80
13974;BME280;7060;43.770;4.008;2023-06-10T01:19:13;100640.75;;;20.56;83.74
13974;BME280;7060;43.770;4.008;2023-06-10T01:21:43;100639.72;;;20.57;83.55
13974;BME280;7060;43.770;4.008;2023-06-10T01:24:18;100641.81;;;20.55;83.44
13974;BME280;7060;43.770;4.008;2023-06-10T01:26:49;100635.31;;;20.56;83.32
13974;BME280;7060;43.770;4.008;2023-06-10T01:29:21;100632.59;;;20.56;83.66
13974;BME280;7060;43.770;4.008;2023-06-10T01:31:58;100628.00;;;20.57;83.57
13974;BME280;7060;43.770;4.008;2023-06-10T01:34:31;100632.81;;;20.55;83.65
13974;BME280;7060;43.770;4.008;2023-06-10T01:37:03;100588.19;;;20.31;83.14
13974;BME280;7060;43.770;4.008;2023-06-10T01:39:32;100634.91;;;20.53;83.17
13974;BME280;7060;43.770;4.008;2023-06-10T01:42:02;100634.91;;;20.53;83.27
13974;BME280;7060;43.770;4.008;2023-06-10T01:44:32;100629.47;;;20.53;83.16
13974;BME280;7060;43.770;4.008;2023-06-10T01:47:00;100630.31;;;20.53;83.02
13974;BME280;7060;43.770;4.008;2023-06-10T01:49:29;100623.63;;;20.49;82.56
13974;BME280;7060;43.770;4.008;2023-06-10T01:51:57;100634.91;;;20.46;82.56
13974;BME280;7060;43.770;4.008;2023-06-10T01:54:27;100635.13;;;20.45;82.57
13974;BME280;7060;43.770;4.008;2023-06-10T01:56:56;100634.50;;;20.43;82.92
13974;BME280;7060;43.770;4.008;2023-06-10T01:59:24;100639.09;;;20.42;82.51
13974;BME280;7060;43.770;4.008;2023-06-10T02:01:53;100643.06;;;20.40;82.96
13974;BME280;7060;43.770;4.008;2023-06-10T02:04:22;100652.28;;;20.39;82.97
13974;BME280;7060;43.770;4.008;2023-06-10T02:06:51;100643.28;;;20.38;82.90
13974;BME280;7060;43.770;4.008;2023-06-10T02:09:20;100634.09;;;20.39;83.11
13974;BME280;7060;43.770;4.008;2023-06-10T02:11:51;100635.75;;;20.40;82.76
13974;BME280;7060;43.770;4.008;2023-06-10T02:14:19;100633.88;;;20.41;82.94
13974;BME280;7060;43.770;4.008;2023-06-10T02:16:48;100633.88;;;20.41;82.79
13974;BME280;7060;43.770;4.008;2023-06-10T02:19:18;100634.50;;;20.43;82.82
13974;BME280;7060;43.770;4.008;2023-06-10T02:21:48;100620.56;;;20.33;82.71
13974;BME280;7060;43.770;4.008;2023-06-10T02:24:17;100639.09;;;20.42;82.48
13974;BME280;7060;43.770;4.008;2023-06-10T02:26:46;100638.69;;;20.39;82.54
13974;BME280;7060;43.770;4.008;2023-06-10T02:29:16;100646.22;;;20.37;82.51
13974;BME280;7060;43.770;4.008;2023-06-10T02:31:45;100648.75;;;20.32;82.61
13974;BME280;7060;43.770;4.008;2023-06-10T02:34:14;100650.22;;;20.27;82.51
13974;BME280;7060;43.770;4.008;2023-06-10T02:36:42;100649.38;;;20.20;82.42
13974;BME280;7060;43.770;4.008;2023-06-10T02:39:11;100643.94;;;20.14;82.22
13974;BME280;7060;43.770;4.008;2023-06-10T02:41:41;100647.91;;;20.05;81.84
13974;BME280;7060;43.770;4.008;2023-06-10T02:44:10;100644.56;;;19.96;81.80
13974;BME280;7060;43.770;4.008;2023-06-10T02:46:40;100646.66;;;19.87;82.08
13974;BME280;7060;43.770;4.008;2023-06-10T02:49:09;100642.47;;;19.85;82.25
13974;BME280;7060;43.770;4.008;2023-06-10T02:51:38;100639.13;;;19.83;82.23
13974;BME280;7060;43.770;4.008;2023-06-10T02:54:07;100637.47;;;19.82;81.94
13974;BME280;7060;43.770;4.008;2023-06-10T02:56:36;100641.44;;;19.79;81.93
13974;BME280;7060;43.770;4.008;2023-06-10T02:59:15;100636.44;;;19.76;81.48
13974;BME280;7060;43.770;4.008;2023-06-10T03:01:47;100634.16;;;19.73;81.37
13974;BME280;7060;43.770;4.008;2023-06-10T03:04:15;100638.53;;;19.68;81.25
13974;BME280;7060;43.770;4.008;2023-06-10T03:06:53;100638.31;;;19.63;81.19
13974;BME280;7060;43.770;4.008;2023-06-10T03:09:27;100636.00;;;19.59;81.20
13974;BME280;7060;43.770;4.008;2023-06-10T03:11:58;100633.06;;;19.54;81.06
13974;BME280;7060;43.770;4.008;2023-06-10T03:14:32;100641.41;;;19.46;80.83
13974;BME280;7060;43.770;4.008;2023-06-10T03:17:04;100635.16;;;19.39;80.96
13974;BME280;7060;43.770;4.008;2023-06-10T03:19:33;100636.97;;;19.32;81.00
13974;BME280;7060;43.770;4.008;2023-06-10T03:22:08;100645.91;;;19.26;80.98
13974;BME280;7060;43.770;4.008;2023-06-10T03:24:41;100650.50;;;19.19;81.22
13974;BME280;7060;43.770;4.008;2023-06-10T03:27:10;100646.94;;;19.18;81.33
13974;BME280;7060;43.770;4.008;2023-06-10T03:29:43;100653.63;;;19.16;81.21
13974;BME280;7060;43.770;4.008;2023-06-10T03:32:13;100647.75;;;19.12;81.30
13974;BME280;7060;43.770;4.008;2023-06-10T03:34:43;100652.56;;;19.10;81.51
13974;BME280;7060;43.770;4.008;2023-06-10T03:37:14;100660.44;;;19.05;81.28
13974;BME280;7060;43.770;4.008;2023-06-10T03:39:46;100661.88;;;19.01;81.63
13974;BME280;7060;43.770;4.008;2023-06-10T03:42:14;100663.13;;;18.99;81.73
13974;BME280;7060;43.770;4.008;2023-06-10T03:44:43;100669.81;;;18.96;81.96
13974;BME280;7060;43.770;4.008;2023-06-10T03:47:13;100669.38;;;18.99;82.00
13974;BME280;7060;43.770;4.008;2023-06-10T03:49:42;100673.75;;;19.00;82.15
13974;BME280;7060;43.770;4.008;2023-06-10T03:52:11;100670.44;;;19.05;82.25
13974;BME280;7060;43.770;4.008;2023-06-10T03:54:42;100678.81;;;19.10;82.00
13974;BME280;7060;43.770;4.008;2023-06-10T03:57:10;100677.78;;;19.11;81.95
13974;BME280;7060;43.770;4.008;2023-06-10T03:59:39;100674.03;;;19.12;82.07
13974;BME280;7060;43.770;4.008;2023-06-10T04:02:08;100667.78;;;19.11;81.91
13974;BME280;7060;43.770;4.008;2023-06-10T04:04:38;100669.03;;;19.15;81.75
13974;BME280;7060;43.770;4.008;2023-06-10T04:07:07;100679.88;;;19.15;81.90
13974;BME280;7060;43.770;4.008;2023-06-10T04:09:36;100683.22;;;19.17;81.58
13974;BME280;7060;43.770;4.008;2023-06-10T04:12:06;100686.38;;;19.21;81.47
13974;BME280;7060;43.770;4.008;2023-06-10T04:14:37;100689.28;;;19.19;81.22
13974;BME280;7060;43.770;4.008;2023-06-10T04:17:09;100695.34;;;19.21;81.19
13974;BME280;7060;43.770;4.008;2023-06-10T04:19:40;100696.81;;;19.24;81.10
13974;BME280;7060;43.770;4.008;2023-06-10T04:22:08;100697.84;;;19.23;80.97
13974;BME280;7060;43.770;4.008;2023-06-10T04:24:37;100700.56;;;19.23;80.88
13974;BME280;7060;43.770;4.008;2023-06-10T04:27:06;100697.00;;;19.22;81.09
13974;BME280;7060;43.770;4.008;2023-06-10T04:29:34;100699.09;;;19.20;81.01
13974;BME280;7060;43.770;4.008;2023-06-10T04:32:04;100703.66;;;19.20;81.04
13974;BME280;7060;43.770;4.008;2023-06-10T04:34:34;100703.03;;;19.18;81.35
13974;BME280;7060;43.770;4.008;2023-06-10T04:37:04;100697.41;;;19.19;81.49
13974;BME280;7060;43.770;4.008;2023-06-10T04:39:34;100698.25;;;19.20;81.57
13974;BME280;7060;43.770;4.008;2023-06-10T04:42:07;100694.91;;;19.18;81.37
13974;BME280;7060;43.770;4.008;2023-06-10T04:44:37;100704.06;;;19.17;81.36
13974;BME280;7060;43.770;4.008;2023-06-10T04:47:06;100700.72;;;19.15;81.14
13974;BME280;7060;43.770;4.008;2023-06-10T04:49:36;100700.50;;;19.10;81.28
13974;BME280;7060;43.770;4.008;2023-06-10T04:52:06;100697.97;;;19.08;81.14
13974;BME280;7060;43.770;4.008;2023-06-10T04:54:38;100701.50;;;19.02;81.43
13974;BME280;7060;43.770;4.008;2023-06-10T04:57:07;100694.78;;;18.98;81.35
13974;BME280;7060;43.770;4.008;2023-06-10T04:59:35;100680.41;;;18.98;81.58
13974;BME280;7060;43.770;4.008;2023-06-10T05:02:05;100684.78;;;18.99;81.74
13974;BME280;7060;43.770;4.008;2023-06-10T05:04:34;100689.81;;;19.02;81.81
13974;BME280;7060;43.770;4.008;2023-06-10T05:07:03;100685.66;;;19.06;81.64
13974;BME280;7060;43.770;4.008;2023-06-10T05:09:33;100687.97;;;19.09;81.64
13974;BME280;7060;43.770;4.008;2023-06-10T05:12:02;100699.69;;;19.16;81.67
13974;BME280;7060;43.770;4.008;2023-06-10T05:14:30;100697.59;;;19.18;81.68
13974;BME280;7060;43.770;4.008;2023-06-10T05:16:59;100702.22;;;19.24;81.81
13974;BME280;7060;43.770;4.008;2023-06-10T05:19:28;100703.28;;;19.36;81.88
13974;BME280;7060;43.770;4.008;2023-06-10T05:21:56;100694.81;;;19.52;82.20
13974;BME280;7060;43.770;4.008;2023-06-10T05:24:25;100698.63;;;19.71;81.77
13974;BME280;7060;43.770;4.008;2023-06-10T05:26:55;100696.09;;;19.83;80.92
13974;BME280;7060;43.770;4.008;2023-06-10T05:29:23;100700.28;;;19.85;80.65
13974;BME280;7060;43.770;4.008;2023-06-10T05:31:52;100696.75;;;19.91;80.06
13974;BME280;7060;43.770;4.008;2023-06-10T05:34:24;100704.28;;;19.96;79.61
13974;BME280;7060;43.770;4.008;2023-06-10T05:36:52;100697.19;;;20.02;80.04
13974;BME280;7060;43.770;4.008;2023-06-10T05:39:21;100708.66;;;20.17;79.80
13974;BME280;7060;43.770;4.008;2023-06-10T05:41:49;100703.88;;;20.25;79.32
13974;BME280;7060;43.770;4.008;2023-06-10T05:44:19;100700.34;;;20.32;79.06
13974;BME280;7060;43.770;4.008;2023-06-10T05:46:48;100707.81;;;20.49;79.85
13974;BME280;7060;43.770;4.008;2023-06-10T05:49:16;100706.88;;;20.88;80.14
13974;BME280;7060;43.770;4.008;2023-06-10T05:51:45;100700.28;;;21.29;77.83
13974;BME280;7060;43.770;4.008;2023-06-10T05:54:13;100706.91;;;21.78;74.95
13974;BME280;7060;43.770;4.008;2023-06-10T05:56:42;100706.78;;;22.22;72.09
13974;BME280;7060;43.770;4.008;2023-06-10T05:59:11;100701.72;;;22.51;70.71
13974;BME280;7060;43.770;4.008;2023-06-10T06:01:41;100699.72;;;23.01;68.86
13974;BME280;7060;43.770;4.008;2023-06-10T06:04:09;100713.66;;;23.29;67.53
13974;BME280;7060;43.770;4.008;2023-06-10T06:06:39;100649.25;;;23.28;66.52
13974;BME280;7060;43.770;4.008;2023-06-10T06:09:08;100706.69;;;24.05;65.22
13974;BME280;7060;43.770;4.008;2023-06-10T06:11:37;100711.59;;;24.38;63.82
13974;BME280;7060;43.770;4.008;2023-06-10T06:14:05;100706.69;;;24.52;61.77
13974;BME280;7060;43.770;4.008;2023-06-10T06:16:34;100718.22;;;24.77;61.48
13974;BME280;7060;43.770;4.008;2023-06-10T06:19:04;100714.06;;;24.98;60.57
13974;BME280;7060;43.770;4.008;2023-06-10T06:21:32;100722.88;;;25.28;59.86
13974;BME280;7060;43.770;4.008;2023-06-10T06:24:01;100723.69;;;25.69;58.87
13974;BME280;7060;43.770;4.008;2023-06-10T06:26:30;100729.69;;;25.83;57.47
13974;BME280;7060;43.770;4.008;2023-06-10T06:28:59;100728.94;;;25.71;57.34
13974;BME280;7060;43.770;4.008;2023-06-10T06:31:27;100726.88;;;25.78;57.02
13974;BME280;7060;43.770;4.008;2023-06-10T06:33:56;100730.03;;;25.86;56.75
13974;BME280;7060;43.770;4.008;2023-06-10T06:36:26;100726.78;;;26.01;55.97
13974;BME280;7060;43.770;4.008;2023-06-10T06:38:54;100729.75;;;26.16;55.75
13974;BME280;7060;43.770;4.008;2023-06-10T06:41:23;100733.66;;;26.54;54.85
13974;BME280;7060;43.770;4.008;2023-06-10T06:43:53;100725.69;;;26.91;52.83
13974;BME280;7060;43.770;4.008;2023-06-10T06:46:30;100720.25;;;27.18;53.39
13974;BME280;7060;43.770;4.008;2023-06-10T06:48:58;100721.47;;;27.49;52.52
13974;BME280;7060;43.770;4.008;2023-06-10T06:51:28;100727.22;;;27.69;52.19
13974;BME280;7060;43.770;4.008;2023-06-10T06:53:57;100737.97;;;27.76;52.12
13974;BME280;7060;43.770;4.008;2023-06-10T06:56:26;100730.22;;;27.94;52.11
13974;BME280;7060;43.770;4.008;2023-06-10T06:58:55;100727.75;;;28.25;51.22
13974;BME280;7060;43.770;4.008;2023-06-10T07:01:24;100730.94;;;28.44;50.27
13974;BME280;7060;43.770;4.008;2023-06-10T07:03:53;100723.34;;;28.61;49.50
13974;BME280;7060;43.770;4.008;2023-06-10T07:06:21;100727.13;;;28.55;49.34
13974;BME280;7060;43.770;4.008;2023-06-10T07:08:51;100716.22;;;28.65;49.91
13974;BME280;7060;43.770;4.008;2023-06-10T07:11:20;100715.69;;;28.68;49.94
13974;BME280;7060;43.770;4.008;2023-06-10T07:13:50;100718.25;;;28.80;49.08
13974;BME280;7060;43.770;4.008;2023-06-10T07:16:18;100720.16;;;28.79;48.51
13974;BME280;7060;43.770;4.008;2023-06-10T07:18:48;100721.78;;;28.75;48.57
13974;BME280;7060;43.770;4.008;2023-06-10T07:21:17;100709.66;;;28.71;49.01
13974;BME280;7060;43.770;4.008;2023-06-10T07:23:45;100718.19;;;28.70;48.80
13974;BME280;7060;43.770;4.008;2023-06-10T07:26:15;100710.22;;;28.73;49.20
13974;BME280;7060;43.770;4.008;2023-06-10T07:28:44;100713.84;;;28.79;48.73
13974;BME280;7060;43.770;4.008;2023-06-10T07:31:12;100710.25;;;28.83;49.21
13974;BME280;7060;43.770;4.008;2023-06-10T07:33:41;100713.56;;;28.85;49.09
13974;BME280;7060;43.770;4.008;2023-06-10T07:36:10;100713.53;;;28.75;48.47
13974;BME280;7060;43.770;4.008;2023-06-10T07:38:40;100713.53;;;28.75;49.02
13974;BME280;7060;43.770;4.008;2023-06-10T07:41:09;100720.09;;;28.69;48.79
13974;BME280;7060;43.770;4.008;2023-06-10T07:43:39;100719.34;;;28.79;48.69
13974;BME280;7060;43.770;4.008;2023-06-10T07:46:08;100722.38;;;28.87;49.10
13974;BME280;7060;43.770;4.008;2023-06-10T07:48:37;100713.03;;;28.88;48.95
13974;BME280;7060;43.770;4.008;2023-06-10T07:51:05;100718.84;;;28.92;48.87
13974;BME280;7060;43.770;4.008;2023-06-10T07:53:34;100724.03;;;28.88;48.85
13974;BME280;7060;43.770;4.008;2023-06-10T07:56:02;100720.09;;;28.69;48.30
13974;BME280;7060;43.770;4.008;2023-06-10T07:58:31;100722.22;;;28.57;48.65
13974;BME280;7060;43.770;4.008;2023-06-10T08:01:01;100728.81;;;28.56;48.37
13974;BME280;7060;43.770;4.008;2023-06-10T08:03:30;100723.00;;;28.47;49.16
13974;BME280;7060;43.770;4.008;2023-06-10T08:05:59;100721.13;;;28.21;49.20
13974;BME280;7060;43.770;4.008;2023-06-10T08:08:28;100722.47;;;28.18;50.13
13974;BME280;7060;43.770;4.008;2023-06-10T08:10:57;100714.88;;;27.99;50.10
13974;BME280;7060;43.770;4.008;2023-06-10T08:13:26;100712.28;;;27.87;50.17
13974;BME280;7060;43.770;4.008;2023-06-10T08:15:54;100711.53;;;27.91;49.67
13974;BME280;7060;43.770;4.008;2023-06-10T08:18:24;100707.41;;;27.94;49.61
13974;BME280;7060;43.770;4.008;2023-06-10T08:20:53;100714.06;;;28.03;50.00
13974;BME280;7060;43.770;4.008;2023-06-10T08:23:21;100717.28;;;28.22;50.37
13974;BME280;7060;43.770;4.008;2023-06-10T08:25:50;100703.44;;;28.44;49.19
13974;BME280;7060;43.770;4.008;2023-06-10T08:28:19;100712.00;;;28.47;48.41
13974;BME280;7060;43.770;4.008;2023-06-10T08:30:48;100712.41;;;28.34;47.82
13974;BME280;7060;43.770;4.008;2023-06-10T08:33:16;100709.34;;;28.30;48.14
13974;BME280;7060;43.770;4.008;2023-06-10T08:35:46;100713.75;;;28.26;48.92
13974;BME280;7060;43.770;4.008;2023-06-10T08:38:15;100708.84;;;28.02;49.54
13974;BME280;7060;43.770;4.008;2023-06-10T08:40:43;100706.50;;;27.83;51.18
13974;BME280;7060;43.770;4.008;2023-06-10T08:43:17;100694.31;;;27.79;51.09
13974;BME280;7060;43.770;4.008;2023-06-10T08:45:52;100691.94;;;27.83;51.54
13974;BME280;7060;43.770;4.008;2023-06-10T08:48:25;100703.28;;;27.91;51.26
13974;BME280;7060;43.770;4.008;2023-06-10T08:50:57;100697.00;;;28.01;52.06
13974;BME280;7060;43.770;4.008;2023-06-10T08:53:26;100695.34;;;28.00;49.73
13974;BME280;7060;43.770;4.008;2023-06-10T08:55:58;100625.56;;;27.37;50.00
13974;BME280;7060;43.770;4.008;2023-06-10T08:58:29;100697.28;;;27.73;50.26
13974;BME280;7060;43.770;4.008;2023-06-10T09:01:00;100695.91;;;27.70;49.84
13974;BME280;7060;43.770;4.008;2023-06-10T09:03:29;100697.81;;;27.70;50.11
13974;BME280;7060;43.770;4.008;2023-06-10T09:06:00;100696.06;;;27.58;49.03
13974;BME280;7060;43.770;4.008;2023-06-10T09:08:28;100699.19;;;27.45;49.88
13974;BME280;7060;43.770;4.008;2023-06-10T09:10:57;100709.31;;;27.40;50.20
13974;BME280;7060;43.770;4.008;2023-06-10T09:13:26;100706.56;;;27.40;50.25
13974;BME280;7060;43.770;4.008;2023-06-10T09:15:55;100694.25;;;27.42;49.85
13974;BME280;7060;43.770;4.008;2023-06-10T09:18:28;100700.00;;;27.41;50.08
13974;BME280;7060;43.770;4.008;2023-06-10T09:20:57;100696.31;;;27.30;49.76
13974;BME280;7060;43.770;4.008;2023-06-10T09:23:27;100699.81;;;27.25;51.73
13974;BME280;7060;43.770;4.008;2023-06-10T09:25:56;100698.03;;;27.36;50.22
13974;BME280;7060;43.770;4.008;2023-06-10T09:28:26;100693.09;;;27.38;49.23
13974;BME280;7060;43.770;4.008;2023-06-10T09:31:04;100671.66;;;27.35;49.56
13974;BME280;7060;43.770;4.008;2023-06-10T09:33:37;100685.00;;;27.53;50.27
13974;BME280;7060;43.770;4.008;2023-06-10T09:36:06;100694.81;;;27.71;49.64
13974;BME280;7060;43.770;4.008;2023-06-10T09:38:36;100691.28;;;27.76;49.88
13974;BME280;7060;43.770;4.008;2023-06-10T09:41:06;100693.63;;;27.89;49.90
13974;BME280;7060;43.770;4.008;2023-06-10T09:43:39;100693.19;;;28.02;48.20
13974;BME280;7060;43.770;4.008;2023-06-10T09:46:14;100687.78;;;28.12;48.41
13974;BME280;7060;43.770;4.008;2023-06-10T09:48:44;100686.81;;;28.34;49.51
13974;BME280;7060;43.770;4.008;2023-06-10T09:51:14;100686.16;;;28.48;47.63
13974;BME280;7060;43.770;4.008;2023-06-10T09:53:49;100682.88;;;28.56;48.09
13974;BME280;7060;43.770;4.008;2023-06-10T09:56:19;100676.09;;;28.32;47.79
13974;BME280;7060;43.770;4.008;2023-06-10T09:58:52;100680.94;;;28.15;48.13
13974;BME280;7060;43.770;4.008;2023-06-10T10:01:21;100684.03;;;27.91;47.52
13974;BME280;7060;43.770;4.008;2023-06-10T10:03:51;100682.69;;;27.94;48.96
13974;BME280;7060;43.770;4.008;2023-06-10T10:06:20;100672.34;;;28.06;47.79
13974;BME280;7060;43.770;4.008;2023-06-10T10:08:51;100645.34;;;27.98;46.81
13974;BME280;7060;43.770;4.008;2023-06-10T10:11:20;100674.38;;;28.21;46.11
13974;BME280;7060;43.770;4.008;2023-06-10T10:13:51;100676.63;;;28.29;45.63
13974;BME280;7060;43.770;4.008;2023-06-10T10:16:21;100673.63;;;28.36;45.61
13974;BME280;7060;43.770;4.008;2023-06-10T10:18:53;100674.88;;;28.50;45.76
13974;BME280;7060;43.770;4.008;2023-06-10T10:21:24;100659.78;;;28.52;46.35
13974;BME280;7060;43.770;4.008;2023-06-10T10:24:00;100664.50;;;28.67;46.34
13974;BME280;7060;43.770;4.008;2023-06-10T10:26:31;100670.03;;;28.72;46.37
13974;BME280;7060;43.770;4.008;2023-06-10T10:29:09;100665.66;;;28.76;46.07
13974;BME280;7060;43.770;4.008;2023-06-10T10:31:42;100659.00;;;28.67;45.64
13974;BME280;7060;43.770;4.008;2023-06-10T10:34:15;100649.09;;;28.66;46.02
13974;BME280;7060;43.770;4.008;2023-06-10T10:36:45;100652.22;;;28.90;46.88
13974;BME280;7060;43.770;4.008;2023-06-10T10:39:17;100643.53;;;29.13;46.25
13974;BME280;7060;43.770;4.008;2023-06-10T10:41:46;100648.81;;;29.30;45.46
13974;BME280;7060;43.770;4.008;2023-06-10T10:44:17;100644.44;;;29.44;44.65
13974;BME280;7060;43.770;4.008;2023-06-10T10:46:50;100638.38;;;29.47;44.54
13974;BME280;7060;43.770;4.008;2023-06-10T10:49:19;100635.59;;;29.37;43.94
13974;BME280;7060;43.770;4.008;2023-06-10T10:51:55;100641.41;;;29.46;44.06
13974;BME280;7060;43.770;4.008;2023-06-10T10:54:33;100637.31;;;29.58;43.48
13974;BME280;7060;43.770;4.008;2023-06-10T10:57:13;100637.28;;;29.53;44.10
13974;BME280;7060;43.770;4.008;2023-06-10T10:59:46;100645.28;;;29.55;43.85
13974;BME280;7060;43.770;4.008;2023-06-10T11:02:33;100622.94;;;29.46;44.19
13974;BME280;7060;43.770;4.008;2023-06-10T11:05:03;100629.56;;;29.55;44.04
13974;BME280;7060;43.770;4.008;2023-06-10T11:07:33;100613.06;;;29.55;43.12
13974;BME280;7060;43.770;4.008;2023-06-10T11:10:06;100632.91;;;29.78;42.62
13974;BME280;7060;43.770;4.008;2023-06-10T11:12:56;100625.47;;;29.88;42.89
13974;BME280;7060;43.770;4.008;2023-06-10T11:15:27;100626.28;;;29.94;42.13
13974;BME280;7060;43.770;4.008;2023-06-10T11:18:22;100631.25;;;29.92;42.65
13974;BME280;7060;43.770;4.008;2023-06-10T11:20:59;100629.59;;;29.66;42.63
13974;BME280;7060;43.770;4.008;2023-06-10T11:23:39;100631.75;;;29.43;43.83
13974;BME280;7060;43.770;4.008;2023-06-10T11:26:20;100626.81;;;29.45;42.51
13974;BME280;7060;43.770;4.008;2023-06-10T11:29:04;100618.81;;;29.49;43.28
13974;BME280;7060;43.770;4.008;2023-06-10T11:31:34;100624.06;;;29.55;42.24
13974;BME280;7060;43.770;4.008;2023-06-10T11:34:07;100614.13;;;29.39;43.45
13974;BME280;7060;43.770;4.008;2023-06-10T11:36:37;100604.22;;;29.33;43.63
13974;BME280;7060;43.770;4.008;2023-06-10T11:39:08;100605.88;;;29.49;43.97
13974;BME280;7060;43.770;4.008;2023-06-10T11:41:39;100606.75;;;29.60;43.41
13974;BME280;7060;43.770;4.008;2023-06-10T11:44:09;100607.56;;;29.76;43.05
13974;BME280;7060;43.770;4.008;2023-06-10T11:46:38;100600.38;;;29.95;42.70
13974;BME280;7060;43.770;4.008;2023-06-10T11:49:07;100597.06;;;30.08;41.35
13974;BME280;7060;43.770;4.008;2023-06-10T11:51:37;100596.25;;;30.18;42.49
13974;BME280;7060;43.770;4.008;2023-06-10T11:54:08;100587.66;;;30.24;41.19
13974;BME280;7060;43.770;4.008;2023-06-10T11:56:40;100591.81;;;30.22;41.02
13974;BME280;7060;43.770;4.008;2023-06-10T11:59:08;100577.19;;;30.26;42.43
13974;BME280;7060;43.770;4.008;2023-06-10T12:01:40;100557.91;;;30.21;41.63
13974;BME280;7060;43.770;4.008;2023-06-10T12:04:13;100582.97;;;30.30;41.67
13974;BME280;7060;43.770;4.008;2023-06-10T12:06:44;100573.63;;;30.01;40.90
13974;BME280;7060;43.770;4.008;2023-06-10T12:09:17;100580.00;;;29.71;41.07
13974;BME280;7060;43.770;4.008;2023-06-10T12:11:55;100580.53;;;29.47;42.16
13974;BME280;7060;43.770;4.008;2023-06-10T12:14:53;100581.06;;;29.24;41.89
13974;BME280;7060;43.770;4.008;2023-06-10T12:17:35;100559.75;;;28.89;43.51
13974;BME280;7060;43.770;4.008;2023-06-10T12:20:06;100577.38;;;28.93;44.08
13974;BME280;7060;43.770;4.008;2023-06-10T12:22:38;100572.97;;;28.87;45.21
13974;BME280;7060;43.770;4.008;2023-06-10T12:25:08;100572.69;;;28.83;45.64
13974;BME280;7060;43.770;4.008;2023-06-10T12:27:51;100572.41;;;28.85;46.59
13974;BME280;7060;43.770;4.008;2023-06-10T12:30:20;100564.41;;;28.83;46.52
13974;BME280;7060;43.770;4.008;2023-06-10T12:32:50;100564.16;;;28.85;46.52
13974;BME280;7060;43.770;4.008;2023-06-10T12:35:20;100559.75;;;28.84;45.86
13974;BME280;7060;43.770;4.008;2023-06-10T12:37:55;100568.00;;;28.84;46.49
13974;BME280;7060;43.770;4.008;2023-06-10T12:40:28;100560.00;;;28.82;46.70
13974;BME280;7060;43.770;4.008;2023-06-10T12:43:00;100553.16;;;28.80;47.76
13974;BME280;7060;43.770;4.008;2023-06-10T12:45:30;100552.88;;;28.81;48.41
13974;BME280;7060;43.770;4.008;2023-06-10T12:48:07;100542.72;;;28.97;48.72
13974;BME280;7060;43.770;4.008;2023-06-10T12:50:37;100542.78;;;29.12;47.37
13974;BME280;7060;43.770;4.008;2023-06-10T12:53:07;100538.69;;;29.30;46.12
13974;BME280;7060;43.770;4.008;2023-06-10T12:55:37;100531.50;;;29.39;45.16
13974;BME280;7060;43.770;4.008;2023-06-10T12:58:07;100527.94;;;29.44;44.72
13974;BME280;7060;43.770;4.008;2023-06-10T13:00:36;100523.53;;;29.48;44.19
13974;BME280;7060;43.770;4.008;2023-06-10T13:03:05;100530.44;;;29.60;43.21
13974;BME280;7060;43.770;4.008;2023-06-10T13:05:35;100521.03;;;29.67;43.71
13974;BME280;7060;43.770;4.008;2023-06-10T13:08:04;100525.44;;;29.78;43.57
13974;BME280;7060;43.770;4.008;2023-06-10T13:10:34;100521.03;;;29.87;42.63
13974;BME280;7060;43.770;4.008;2023-06-10T13:13:03;100516.03;;;29.94;42.49
13974;BME280;7060;43.770;4.008;2023-06-10T13:15:37;100511.06;;;30.06;43.05
13974;BME280;7060;43.770;4.008;2023-06-10T13:18:10;100503.84;;;30.20;42.95